sensor_id;sensor_type;location;lat;lon;timestamp;pressure;altitude;pressure_sealevel;temperature;humidity
39051;BME280;24805;55.852;37.644;2022-12-04T00:01:31;102384.50;;;-6.46;60.41
39051;BME280;24805;55.852;37.644;2022-12-04T00:06:33;102376.75;;;-6.47;60.66
39051;BME280;24805;55.852;37.644;2022-12-04T00:11:37;102377.63;;;-6.45;60.48
39051;BME280;24805;55.852;37.644;2022-12-04T00:16:39;102386.22;;;-6.49;59.78
39051;BME280;24805;55.852;37.644;2022-12-04T00:21:41;102388.81;;;-6.49;59.97
39051;BME280;24805;55.852;37.644;2022-12-04T00:26:43;102384.50;;;-6.50;60.82
39051;BME280;24805;55.852;37.644;2022-12-04T00:31:46;102398.28;;;-6.45;59.86
39051;BME280;24805;55.852;37.644;2022-12-04T00:36:48;102373.31;;;-6.60;60.69
39051;BME280;24805;55.852;37.644;2022-12-04T00:41:50;102365.56;;;-6.71;60.16
39051;BME280;24805;55.852;37.644;2022-12-04T00:46:52;102379.31;;;-6.78;60.17
39051;BME280;24805;55.852;37.644;2022-12-04T00:51:54;102393.97;;;-6.83;59.93
39051;BME280;24805;55.852;37.644;2022-12-04T00:56:57;102384.47;;;-6.95;60.89
39051;BME280;24805;55.852;37.644;2022-12-04T01:01:59;102385.31;;;-7.02;60.29
39051;BME280;24805;55.852;37.644;2022-12-04T01:07:01;102375.00;;;-7.05;61.08
39051;BME280;24805;55.852;37.644;2022-12-04T01:12:06;102381.00;;;-7.10;59.62
39051;BME280;24805;55.852;37.644;2022-12-04T01:17:08;102362.06;;;-7.15;60.22
39051;BME280;24805;55.852;37.644;2022-12-04T01:22:10;102380.13;;;-7.21;59.96
39051;BME280;24805;55.852;37.644;2022-12-04T01:27:12;102389.56;;;-7.22;59.84
39051;BME280;24805;55.852;37.644;2022-12-04T01:32:14;102389.56;;;-7.26;60.95
39051;BME280;24805;55.852;37.644;2022-12-04T01:37:16;102378.34;;;-7.32;60.84
39051;BME280;24805;55.852;37.644;2022-12-04T01:42:18;102369.72;;;-7.43;60.11
39051;BME280;24805;55.852;37.644;2022-12-04T01:47:20;102396.38;;;-7.38;60.30
39051;BME280;24805;55.852;37.644;2022-12-04T01:52:24;102369.66;;;-7.58;60.03
39051;BME280;24805;55.852;37.644;2022-12-04T01:57:30;102410.13;;;-7.39;59.70
39051;BME280;24805;55.852;37.644;2022-12-04T02:02:37;102390.34;;;-7.47;60.35
39051;BME280;24805;55.852;37.644;2022-12-04T02:07:42;102392.00;;;-7.63;60.07
39051;BME280;24805;55.852;37.644;2022-12-04T02:18:48;102388.53;;;-7.68;59.79
39051;BME280;24805;55.852;37.644;2022-12-04T02:34:56;102389.25;;;-7.93;60.58
39051;BME280;24805;55.852;37.644;2022-12-04T02:45:11;102389.25;;;-8.00;60.78
39051;BME280;24805;55.852;37.644;2022-12-04T02:50:16;102403.78;;;-8.05;61.08
39051;BME280;24805;55.852;37.644;2022-12-04T02:55:41;102398.66;;;-8.02;60.93
39051;BME280;24805;55.852;37.644;2022-12-04T03:00:44;102408.06;;;-8.07;61.48
39051;BME280;24805;55.852;37.644;2022-12-04T03:06:12;102413.25;;;-7.99;60.63
39051;BME280;24805;55.852;37.644;2022-12-04T03:11:14;102388.25;;;-8.17;60.59
39051;BME280;24805;55.852;37.644;2022-12-04T03:16:33;102414.13;;;-8.03;60.94
39051;BME280;24805;55.852;37.644;2022-12-04T03:21:45;102406.34;;;-8.08;60.56
39051;BME280;24805;55.852;37.644;2022-12-04T03:27:10;102421.78;;;-8.11;60.76
39051;BME280;24805;55.852;37.644;2022-12-04T03:32:19;102411.50;;;-8.08;60.90
39051;BME280;24805;55.852;37.644;2022-12-04T03:42:43;102392.44;;;-8.34;60.54
39051;BME280;24805;55.852;37.644;2022-12-04T03:48:00;102423.41;;;-8.25;60.79
39051;BME280;24805;55.852;37.644;2022-12-04T03:58:26;102425.03;;;-8.41;60.91
39051;BME280;24805;55.852;37.644;2022-12-04T04:03:34;102418.09;;;-8.48;61.48
39051;BME280;24805;55.852;37.644;2022-12-04T04:08:40;102432.75;;;-8.41;59.98
39051;BME280;24805;55.852;37.644;2022-12-04T04:13:49;102414.56;;;-8.62;60.84
39051;BME280;24805;55.852;37.644;2022-12-04T04:19:14;102413.63;;;-8.67;61.28
39051;BME280;24805;55.852;37.644;2022-12-04T04:24:44;102433.47;;;-8.55;60.86
39051;BME280;24805;55.852;37.644;2022-12-04T04:29:47;102440.34;;;-8.54;61.33
39051;BME280;24805;55.852;37.644;2022-12-04T04:45:54;102427.34;;;-8.68;60.64
39051;BME280;24805;55.852;37.644;2022-12-04T04:50:59;102454.03;;;-8.61;60.67
39051;BME280;24805;55.852;37.644;2022-12-04T04:56:04;102452.25;;;-8.65;61.03
39051;BME280;24805;55.852;37.644;2022-12-04T05:01:13;102467.72;;;-8.65;61.65
39051;BME280;24805;55.852;37.644;2022-12-04T05:06:15;102463.41;;;-8.65;61.08
39051;BME280;24805;55.852;37.644;2022-12-04T05:11:18;102455.66;;;-8.70;61.05
39051;BME280;24805;55.852;37.644;2022-12-04T05:16:20;102440.22;;;-8.70;61.40
39051;BME280;24805;55.852;37.644;2022-12-04T05:21:22;102448.75;;;-8.72;60.88
39051;BME280;24805;55.852;37.644;2022-12-04T05:26:24;102465.03;;;-8.75;60.97
39051;BME280;24805;55.852;37.644;2022-12-04T05:31:26;102460.69;;;-8.82;60.65
39051;BME280;24805;55.852;37.644;2022-12-04T05:36:28;102467.53;;;-8.82;61.46
39051;BME280;24805;55.852;37.644;2022-12-04T05:41:30;102467.53;;;-8.82;61.37
39051;BME280;24805;55.852;37.644;2022-12-04T05:46:32;102464.16;;;-8.75;61.68
39051;BME280;24805;55.852;37.644;2022-12-04T05:51:34;102471.91;;;-8.74;60.93
39051;BME280;24805;55.852;37.644;2022-12-04T05:56:37;102472.03;;;-8.63;60.34
39051;BME280;24805;55.852;37.644;2022-12-04T06:01:40;102474.63;;;-8.57;60.62
39051;BME280;24805;55.852;37.644;2022-12-04T06:06:42;102467.09;;;-8.40;61.54
39051;BME280;24805;55.852;37.644;2022-12-04T06:11:45;102473.47;;;-7.86;60.49
39051;BME280;24805;55.852;37.644;2022-12-04T06:16:47;102483.31;;;-7.14;58.88
39051;BME280;24805;55.852;37.644;2022-12-04T06:21:50;102493.78;;;-6.77;58.33
39051;BME280;24805;55.852;37.644;2022-12-04T06:26:58;102475.75;;;-6.39;58.70
39051;BME280;24805;55.852;37.644;2022-12-04T06:32:20;102476.63;;;-5.88;56.35
39051;BME280;24805;55.852;37.644;2022-12-04T06:37:23;102476.53;;;-5.55;55.54
39051;BME280;24805;55.852;37.644;2022-12-04T06:42:25;102447.19;;;-5.40;53.92
39051;BME280;24805;55.852;37.644;2022-12-04T06:47:27;102491.94;;;-5.11;53.92
39051;BME280;24805;55.852;37.644;2022-12-04T06:52:32;102496.25;;;-5.13;52.82
39051;BME280;24805;55.852;37.644;2022-12-04T06:57:34;102490.84;;;-4.63;52.44
39051;BME280;24805;55.852;37.644;2022-12-04T07:02:36;102499.97;;;-4.13;50.81
39051;BME280;24805;55.852;37.644;2022-12-04T07:07:38;102493.44;;;-3.59;49.96
39051;BME280;24805;55.852;37.644;2022-12-04T07:12:40;102470.47;;;-3.17;48.61
39051;BME280;24805;55.852;37.644;2022-12-04T07:17:42;102476.91;;;-2.78;48.12
39051;BME280;24805;55.852;37.644;2022-12-04T07:22:44;102508.28;;;-2.30;46.88
39051;BME280;24805;55.852;37.644;2022-12-04T07:27:46;102512.00;;;-1.93;46.02
39051;BME280;24805;55.852;37.644;2022-12-04T07:32:48;102518.28;;;-1.54;45.77
39051;BME280;24805;55.852;37.644;2022-12-04T07:37:50;102503.41;;;-1.47;44.55
39051;BME280;24805;55.852;37.644;2022-12-04T07:42:52;102486.50;;;-1.25;43.62
39051;BME280;24805;55.852;37.644;2022-12-04T07:47:54;102525.56;;;-0.82;43.27
39051;BME280;24805;55.852;37.644;2022-12-04T07:52:56;102513.22;;;-0.35;41.86
39051;BME280;24805;55.852;37.644;2022-12-04T07:57:58;102518.88;;;-0.16;40.98
39051;BME280;24805;55.852;37.644;2022-12-04T08:03:01;102524.06;;;-0.15;41.10
39051;BME280;24805;55.852;37.644;2022-12-04T08:08:03;102516.47;;;0.12;40.28
39051;BME280;24805;55.852;37.644;2022-12-04T08:13:06;102515.41;;;0.53;39.12
39051;BME280;24805;55.852;37.644;2022-12-04T08:18:08;102520.59;;;0.85;39.21
39051;BME280;24805;55.852;37.644;2022-12-04T08:23:10;102507.59;;;0.82;38.63
39051;BME280;24805;55.852;37.644;2022-12-04T08:28:12;102511.44;;;0.71;38.59
39051;BME280;24805;55.852;37.644;2022-12-04T08:33:14;102506.88;;;0.79;38.07
39051;BME280;24805;55.852;37.644;2022-12-04T08:38:15;102525.69;;;0.59;38.17
39051;BME280;24805;55.852;37.644;2022-12-04T08:43:18;102509.41;;;0.15;38.53
39051;BME280;24805;55.852;37.644;2022-12-04T08:48:19;102508.25;;;-0.09;38.54
39051;BME280;24805;55.852;37.644;2022-12-04T08:53:22;102522.19;;;-0.10;39.12
39051;BME280;24805;55.852;37.644;2022-12-04T08:58:24;102492.47;;;-0.03;38.16
39051;BME280;24805;55.852;37.644;2022-12-04T09:03:26;102514.91;;;0.03;38.07
39051;BME280;24805;55.852;37.644;2022-12-04T09:08:34;102504.13;;;0.18;38.08
39051;BME280;24805;55.852;37.644;2022-12-04T09:13:36;102501.53;;;0.17;38.37
39051;BME280;24805;55.852;37.644;2022-12-04T09:18:39;102515.91;;;0.33;38.36
39051;BME280;24805;55.852;37.644;2022-12-04T09:23:42;102505.09;;;0.14;37.72
39051;BME280;24805;55.852;37.644;2022-12-04T09:28:45;102513.69;;;0.18;37.73
39051;BME280;24805;55.852;37.644;2022-12-04T09:33:48;102501.00;;;0.69;37.17
39051;BME280;24805;55.852;37.644;2022-12-04T09:38:51;102495.13;;;1.51;36.08
39051;BME280;24805;55.852;37.644;2022-12-04T09:49:02;102491.22;;;1.64;35.57
39051;BME280;24805;55.852;37.644;2022-12-04T09:54:28;102488.59;;;1.64;36.81
39051;BME280;24805;55.852;37.644;2022-12-04T09:59:33;102495.28;;;1.18;35.58
39051;BME280;24805;55.852;37.644;2022-12-04T10:04:35;102507.25;;;0.96;36.18
39051;BME280;24805;55.852;37.644;2022-12-04T10:09:45;102491.53;;;0.97;36.00
39051;BME280;24805;55.852;37.644;2022-12-04T10:25:25;102477.09;;;0.83;35.70
39051;BME280;24805;55.852;37.644;2022-12-04T10:30:30;102476.28;;;0.50;36.44
39051;BME280;24805;55.852;37.644;2022-12-04T10:35:34;102483.75;;;0.31;36.55
39051;BME280;24805;55.852;37.644;2022-12-04T10:40:45;102464.78;;;0.24;36.99
39051;BME280;24805;55.852;37.644;2022-12-04T10:45:49;102465.38;;;0.36;36.54
39051;BME280;24805;55.852;37.644;2022-12-04T10:50:52;102476.94;;;0.25;36.41
39051;BME280;24805;55.852;37.644;2022-12-04T10:55:54;102453.16;;;0.02;37.13
39051;BME280;24805;55.852;37.644;2022-12-04T11:01:02;102462.94;;;0.28;37.17
39051;BME280;24805;55.852;37.644;2022-12-04T11:06:08;102465.78;;;-0.15;36.73
39051;BME280;24805;55.852;37.644;2022-12-04T11:11:14;102457.97;;;-0.52;37.92
39051;BME280;24805;55.852;37.644;2022-12-04T11:16:41;102458.38;;;-0.69;38.64
39051;BME280;24805;55.852;37.644;2022-12-04T11:21:45;102477.56;;;-1.13;38.09
39051;BME280;24805;55.852;37.644;2022-12-04T11:26:48;102467.41;;;-1.25;39.16
39051;BME280;24805;55.852;37.644;2022-12-04T11:31:51;102456.69;;;-1.12;39.07
39051;BME280;24805;55.852;37.644;2022-12-04T11:36:59;102457.88;;;-1.28;38.68
39051;BME280;24805;55.852;37.644;2022-12-04T11:42:22;102450.28;;;-1.39;40.36
39051;BME280;24805;55.852;37.644;2022-12-04T11:47:27;102447.72;;;-1.86;40.04
39051;BME280;24805;55.852;37.644;2022-12-04T11:58:30;102449.38;;;-2.33;40.83
39051;BME280;24805;55.852;37.644;2022-12-04T12:09:12;102454.28;;;-3.39;42.44
39051;BME280;24805;55.852;37.644;2022-12-04T12:14:31;102436.69;;;-3.92;43.52
39051;BME280;24805;55.852;37.644;2022-12-04T12:25:08;102459.69;;;-4.57;44.96
39051;BME280;24805;55.852;37.644;2022-12-04T12:30:16;102449.50;;;-4.84;45.18
39051;BME280;24805;55.852;37.644;2022-12-04T12:35:29;102448.72;;;-4.98;46.12
39051;BME280;24805;55.852;37.644;2022-12-04T12:40:42;102445.34;;;-5.17;46.61
39051;BME280;24805;55.852;37.644;2022-12-04T12:45:57;102454.03;;;-5.29;46.59
39051;BME280;24805;55.852;37.644;2022-12-04T12:51:12;102456.69;;;-5.42;47.15
39051;BME280;24805;55.852;37.644;2022-12-04T12:56:40;102449.78;;;-5.45;48.14
39051;BME280;24805;55.852;37.644;2022-12-04T13:07:25;102466.22;;;-5.64;47.36
39051;BME280;24805;55.852;37.644;2022-12-04T13:12:33;102430.97;;;-5.89;48.82
39051;BME280;24805;55.852;37.644;2022-12-04T13:17:38;102432.69;;;-5.90;48.72
39051;BME280;24805;55.852;37.644;2022-12-04T13:28:17;102461.09;;;-5.81;49.26
39051;BME280;24805;55.852;37.644;2022-12-04T13:43:59;102464.59;;;-6.05;49.96
39051;BME280;24805;55.852;37.644;2022-12-04T14:09:40;102451.66;;;-6.31;50.29
39051;BME280;24805;55.852;37.644;2022-12-04T14:14:53;102447.34;;;-6.33;50.93
39051;BME280;24805;55.852;37.644;2022-12-04T14:19:59;102453.41;;;-6.40;51.18
39051;BME280;24805;55.852;37.644;2022-12-04T14:30:33;102418.09;;;-6.61;51.14
39051;BME280;24805;55.852;37.644;2022-12-04T14:35:44;102449.06;;;-6.49;50.69
39051;BME280;24805;55.852;37.644;2022-12-04T14:40:50;102443.03;;;-6.55;51.60
39051;BME280;24805;55.852;37.644;2022-12-04T14:51:13;102418.91;;;-6.74;52.01
39051;BME280;24805;55.852;37.644;2022-12-04T14:56:23;102441.31;;;-6.66;52.23
39051;BME280;24805;55.852;37.644;2022-12-04T15:01:35;102463.66;;;-6.72;51.97
39051;BME280;24805;55.852;37.644;2022-12-04T15:06:38;102448.16;;;-6.83;52.27
39051;BME280;24805;55.852;37.644;2022-12-04T15:11:49;102453.34;;;-6.80;52.42
39051;BME280;24805;55.852;37.644;2022-12-04T15:17:12;102449.00;;;-6.88;52.12
39051;BME280;24805;55.852;37.644;2022-12-04T15:22:22;102443.84;;;-6.88;52.14
39051;BME280;24805;55.852;37.644;2022-12-04T15:27:25;102445.53;;;-6.93;52.43
39051;BME280;24805;55.852;37.644;2022-12-04T15:32:33;102448.97;;;-6.98;52.56
39051;BME280;24805;55.852;37.644;2022-12-04T15:37:35;102438.63;;;-7.07;52.60
39051;BME280;24805;55.852;37.644;2022-12-04T15:42:37;102434.34;;;-7.06;52.91
39051;BME280;24805;55.852;37.644;2022-12-04T15:58:21;102445.50;;;-7.07;52.69
39051;BME280;24805;55.852;37.644;2022-12-04T16:08:45;102444.59;;;-7.18;53.29
39051;BME280;24805;55.852;37.644;2022-12-04T16:13:49;102449.78;;;-7.23;53.34
39051;BME280;24805;55.852;37.644;2022-12-04T16:18:51;102460.00;;;-7.35;53.24
39051;BME280;24805;55.852;37.644;2022-12-04T16:23:53;102449.72;;;-7.32;53.42
39051;BME280;24805;55.852;37.644;2022-12-04T16:28:55;102458.31;;;-7.32;53.16
39051;BME280;24805;55.852;37.644;2022-12-04T16:33:57;102436.81;;;-7.40;53.14
39051;BME280;24805;55.852;37.644;2022-12-04T16:38:59;102440.22;;;-7.42;52.88
39051;BME280;24805;55.852;37.644;2022-12-04T16:44:02;102440.22;;;-7.42;53.43
39051;BME280;24805;55.852;37.644;2022-12-04T16:49:09;102447.97;;;-7.44;53.12
39051;BME280;24805;55.852;37.644;2022-12-04T16:54:12;102432.41;;;-7.54;53.23
39051;BME280;24805;55.852;37.644;2022-12-04T16:59:15;102442.75;;;-7.51;52.83
39051;BME280;24805;55.852;37.644;2022-12-04T17:04:17;102444.41;;;-7.66;53.49
39051;BME280;24805;55.852;37.644;2022-12-04T17:09:20;102437.50;;;-7.71;53.05
39051;BME280;24805;55.852;37.644;2022-12-04T17:14:22;102438.34;;;-7.71;52.83
39051;BME280;24805;55.852;37.644;2022-12-04T17:19:24;102432.28;;;-7.77;53.44
39051;BME280;24805;55.852;37.644;2022-12-04T17:24:26;102441.72;;;-7.82;53.25
39051;BME280;24805;55.852;37.644;2022-12-04T17:29:28;102424.53;;;-7.85;53.79
39051;BME280;24805;55.852;37.644;2022-12-04T17:34:30;102438.22;;;-7.92;53.43
39051;BME280;24805;55.852;37.644;2022-12-04T17:39:32;102429.63;;;-7.92;54.16
39051;BME280;24805;55.852;37.644;2022-12-04T17:44:35;102421.84;;;-7.99;54.29
39051;BME280;24805;55.852;37.644;2022-12-04T17:49:37;102420.06;;;-8.10;53.88
39051;BME280;24805;55.852;37.644;2022-12-04T17:54:39;102422.66;;;-8.07;54.40
39051;BME280;24805;55.852;37.644;2022-12-04T17:59:41;102412.28;;;-8.15;54.33
39051;BME280;24805;55.852;37.644;2022-12-04T18:04:44;102420.00;;;-8.18;54.62
39051;BME280;24805;55.852;37.644;2022-12-04T18:09:46;102416.56;;;-8.18;55.37
39051;BME280;24805;55.852;37.644;2022-12-04T18:14:49;102397.69;;;-8.20;54.37
39051;BME280;24805;55.852;37.644;2022-12-04T18:19:51;102398.50;;;-8.26;55.36
39051;BME280;24805;55.852;37.644;2022-12-04T18:24:53;102402.81;;;-8.19;54.07
39051;BME280;24805;55.852;37.644;2022-12-04T18:29:56;102412.28;;;-8.21;54.48
39051;BME280;24805;55.852;37.644;2022-12-04T18:34:58;102403.63;;;-8.29;54.87
39051;BME280;24805;55.852;37.644;2022-12-04T18:40:02;102401.84;;;-8.38;55.39
39051;BME280;24805;55.852;37.644;2022-12-04T18:45:08;102388.94;;;-8.45;55.31
39051;BME280;24805;55.852;37.644;2022-12-04T18:50:10;102390.69;;;-8.41;55.65
39051;BME280;24805;55.852;37.644;2022-12-04T18:55:13;102407.03;;;-8.36;55.41
39051;BME280;24805;55.852;37.644;2022-12-04T19:00:15;102387.28;;;-8.34;56.04
39051;BME280;24805;55.852;37.644;2022-12-04T19:05:17;102390.72;;;-8.30;54.61
39051;BME280;24805;55.852;37.644;2022-12-04T19:10:19;102383.00;;;-8.40;55.30
39051;BME280;24805;55.852;37.644;2022-12-04T19:15:22;102384.69;;;-8.39;56.11
39051;BME280;24805;55.852;37.644;2022-12-04T19:20:24;102388.94;;;-8.47;55.83
39051;BME280;24805;55.852;37.644;2022-12-04T19:25:26;102387.19;;;-8.49;55.84
39051;BME280;24805;55.852;37.644;2022-12-04T19:30:29;102372.63;;;-8.47;56.08
39051;BME280;24805;55.852;37.644;2022-12-04T19:35:33;102377.69;;;-8.55;55.99
39051;BME280;24805;55.852;37.644;2022-12-04T19:40:35;102382.03;;;-8.49;55.40
39051;BME280;24805;55.852;37.644;2022-12-04T19:45:37;102364.78;;;-8.58;55.78
39051;BME280;24805;55.852;37.644;2022-12-04T19:50:39;102372.53;;;-8.59;56.38
39051;BME280;24805;55.852;37.644;2022-12-04T19:55:41;102364.78;;;-8.61;56.39
39051;BME280;24805;55.852;37.644;2022-12-04T20:00:46;102369.97;;;-8.56;55.78
39051;BME280;24805;55.852;37.644;2022-12-04T20:05:49;102363.06;;;-8.62;56.11
39051;BME280;24805;55.852;37.644;2022-12-04T20:10:51;102359.63;;;-8.62;56.16
39051;BME280;24805;55.852;37.644;2022-12-04T20:15:53;102350.19;;;-8.65;56.74
39051;BME280;24805;55.852;37.644;2022-12-04T20:20:56;102355.34;;;-8.63;56.33
39051;BME280;24805;55.852;37.644;2022-12-04T20:26:03;102357.94;;;-8.62;55.98
39051;BME280;24805;55.852;37.644;2022-12-04T20:36:19;102363.88;;;-8.66;56.62
39051;BME280;24805;55.852;37.644;2022-12-04T20:41:23;102363.03;;;-8.66;56.50
39051;BME280;24805;55.852;37.644;2022-12-04T20:46:31;102357.94;;;-8.57;56.18
39051;BME280;24805;55.852;37.644;2022-12-04T20:51:36;102362.25;;;-8.59;57.29
39051;BME280;24805;55.852;37.644;2022-12-04T20:56:39;102334.59;;;-8.82;56.77
39051;BME280;24805;55.852;37.644;2022-12-04T21:01:42;102363.94;;;-8.60;55.81
39051;BME280;24805;55.852;37.644;2022-12-04T21:06:45;102358.78;;;-8.63;56.00
39051;BME280;24805;55.852;37.644;2022-12-04T21:11:50;102360.41;;;-8.71;56.36
39051;BME280;24805;55.852;37.644;2022-12-04T21:16:52;102356.13;;;-8.69;55.71
39051;BME280;24805;55.852;37.644;2022-12-04T21:21:55;102350.19;;;-8.65;56.25
39051;BME280;24805;55.852;37.644;2022-12-04T21:26:57;102351.03;;;-8.66;56.85
39051;BME280;24805;55.852;37.644;2022-12-04T21:31:59;102341.56;;;-8.67;56.30
39051;BME280;24805;55.852;37.644;2022-12-04T21:37:01;102298.53;;;-8.85;56.53
39051;BME280;24805;55.852;37.644;2022-12-04T21:42:04;102322.72;;;-8.64;56.58
39051;BME280;24805;55.852;37.644;2022-12-04T21:47:25;102315.88;;;-8.64;57.49
39051;BME280;24805;55.852;37.644;2022-12-04T21:52:27;102321.91;;;-8.60;56.57
39051;BME280;24805;55.852;37.644;2022-12-04T21:57:29;102324.47;;;-8.60;56.97
39051;BME280;24805;55.852;37.644;2022-12-04T22:02:31;102320.22;;;-8.54;56.58
39051;BME280;24805;55.852;37.644;2022-12-04T22:07:33;102321.09;;;-8.52;56.80
39051;BME280;24805;55.852;37.644;2022-12-04T22:12:35;102314.25;;;-8.48;55.82
39051;BME280;24805;55.852;37.644;2022-12-04T22:17:53;102292.00;;;-8.40;56.49
39051;BME280;24805;55.852;37.644;2022-12-04T22:22:55;102255.81;;;-8.63;55.90
39051;BME280;24805;55.852;37.644;2022-12-04T22:27:58;102290.25;;;-8.44;55.88
39051;BME280;24805;55.852;37.644;2022-12-04T22:33:00;102282.47;;;-8.52;56.68
39051;BME280;24805;55.852;37.644;2022-12-04T22:38:02;102292.75;;;-8.53;56.46
39051;BME280;24805;55.852;37.644;2022-12-04T22:43:05;102291.03;;;-8.53;56.97
39051;BME280;24805;55.852;37.644;2022-12-04T22:48:08;102284.22;;;-8.48;57.39
39051;BME280;24805;55.852;37.644;2022-12-04T22:53:10;102244.69;;;-8.62;56.29
39051;BME280;24805;55.852;37.644;2022-12-04T22:58:12;102275.66;;;-8.45;56.05
39051;BME280;24805;55.852;37.644;2022-12-04T23:03:14;102275.66;;;-8.47;56.82
39051;BME280;24805;55.852;37.644;2022-12-04T23:08:17;102250.66;;;-8.66;56.43
39051;BME280;24805;55.852;37.644;2022-12-04T23:13:19;102265.31;;;-8.51;56.35
39051;BME280;24805;55.852;37.644;2022-12-04T23:18:22;102274.78;;;-8.49;55.63
39051;BME280;24805;55.852;37.644;2022-12-04T23:23:24;102268.78;;;-8.48;56.23
39051;BME280;24805;55.852;37.644;2022-12-04T23:28:26;102256.75;;;-8.47;56.29
39051;BME280;24805;55.852;37.644;2022-12-04T23:33:28;102256.75;;;-8.49;56.54
39051;BME280;24805;55.852;37.644;2022-12-04T23:38:31;102265.34;;;-8.48;56.27
39051;BME280;24805;55.852;37.644;2022-12-04T23:43:33;102259.25;;;-8.61;56.68
39051;BME280;24805;55.852;37.644;2022-12-04T23:48:35;102268.66;;;-8.66;56.87
39051;BME280;24805;55.852;37.644;2022-12-04T23:53:38;102211.03;;;-8.89;56.86
39051;BME280;24805;55.852;37.644;2022-12-04T23:58:41;102217.06;;;-8.87;57.39
